<?xml version="1.0" encoding="UTF-8" standalone="no" ?>
<gpx xmlns="http://www.topografix.com/GPX/1/1" xmlns:xsi="http://www.w3.org/2001/XMLSchema-instance" xsi:schemaLocation="http://www.topografix.com/GPX/1/1 http://www.topografix.com/GPX/1/1/gpx.xsd" version="1.1" creator="VisuGPX - https://www.visugpx.com">
  <metadata>
    <name>Parcours entrainement VTT de l' Esterel</name>
  </metadata>
  <wpt lat="43.45479" lon="6.7732">
    <ele>64</ele>
    <name><![CDATA[Impasse de l'avenue du golf ]]></name>
  </wpt>
  <wpt lat="43.46738" lon="6.78244">
    <ele>77</ele>
    <name><![CDATA[Maison forestière de la Louve]]></name>
  </wpt>
  <wpt lat="43.46737" lon="6.79051">
    <ele>105</ele>
    <name><![CDATA[Carrefour de la Colle Douce]]></name>
  </wpt>
  <wpt lat="43.49157" lon="6.79979">
    <ele>343</ele>
    <name><![CDATA[Cantine du Porfait]]></name>
  </wpt>
  <wpt lat="43.46982" lon="6.80091">
    <ele>97</ele>
    <name><![CDATA[Prendre à droite la piste Castelli]]></name>
  </wpt>
  <wpt lat="43.45481" lon="6.77318">
    <ele>64</ele>
    <name><![CDATA[Impasse de l'avenue du golf ]]></name>
  </wpt>
  <trk>
    <name><![CDATA[Parcours entrainement VTT de l' Esterel]]></name>
    <trkseg>
      <trkpt lat="43.45479" lon="6.7732">
        <ele>64</ele>
        <time>2021-04-16T11:20:47+02:00</time>
      </trkpt>
      <trkpt lat="43.45448" lon="6.77358">
        <ele>63</ele>
        <time>2021-04-16T11:20:52+02:00</time>
      </trkpt>
      <trkpt lat="43.45557" lon="6.77476">
        <ele>64</ele>
        <time>2021-04-16T11:20:57+02:00</time>
      </trkpt>
      <trkpt lat="43.45587" lon="6.77541">
        <ele>66</ele>
        <time>2021-04-16T11:21:02+02:00</time>
      </trkpt>
      <trkpt lat="43.45612" lon="6.77573">
        <ele>66</ele>
        <time>2021-04-16T11:21:07+02:00</time>
      </trkpt>
      <trkpt lat="43.45606" lon="6.77653">
        <ele>68</ele>
        <time>2021-04-16T11:21:12+02:00</time>
      </trkpt>
      <trkpt lat="43.4565" lon="6.77748">
        <ele>63</ele>
        <time>2021-04-16T11:21:17+02:00</time>
      </trkpt>
      <trkpt lat="43.45695" lon="6.77802">
        <ele>57</ele>
        <time>2021-04-16T11:21:22+02:00</time>
      </trkpt>
      <trkpt lat="43.45727" lon="6.77802">
        <ele>54</ele>
        <time>2021-04-16T11:21:27+02:00</time>
      </trkpt>
      <trkpt lat="43.45755" lon="6.77817">
        <ele>52</ele>
        <time>2021-04-16T11:21:32+02:00</time>
      </trkpt>
      <trkpt lat="43.45833" lon="6.77879">
        <ele>50</ele>
        <time>2021-04-16T11:21:37+02:00</time>
      </trkpt>
      <trkpt lat="43.45874" lon="6.77861">
        <ele>48</ele>
        <time>2021-04-16T11:21:42+02:00</time>
      </trkpt>
      <trkpt lat="43.45924" lon="6.77846">
        <ele>47</ele>
        <time>2021-04-16T11:21:47+02:00</time>
      </trkpt>
      <trkpt lat="43.45966" lon="6.7784">
        <ele>48</ele>
        <time>2021-04-16T11:21:52+02:00</time>
      </trkpt>
      <trkpt lat="43.46028" lon="6.77867">
        <ele>51</ele>
        <time>2021-04-16T11:21:57+02:00</time>
      </trkpt>
      <trkpt lat="43.46066" lon="6.77882">
        <ele>51</ele>
        <time>2021-04-16T11:22:02+02:00</time>
      </trkpt>
      <trkpt lat="43.46079" lon="6.77903">
        <ele>51</ele>
        <time>2021-04-16T11:22:07+02:00</time>
      </trkpt>
      <trkpt lat="43.46105" lon="6.77915">
        <ele>53</ele>
        <time>2021-04-16T11:22:12+02:00</time>
      </trkpt>
      <trkpt lat="43.46197" lon="6.7803">
        <ele>57</ele>
        <time>2021-04-16T11:22:17+02:00</time>
      </trkpt>
      <trkpt lat="43.46308" lon="6.78093">
        <ele>61</ele>
        <time>2021-04-16T11:22:22+02:00</time>
      </trkpt>
      <trkpt lat="43.4634" lon="6.78103">
        <ele>63</ele>
        <time>2021-04-16T11:22:27+02:00</time>
      </trkpt>
      <trkpt lat="43.46381" lon="6.78092">
        <ele>64</ele>
        <time>2021-04-16T11:22:32+02:00</time>
      </trkpt>
      <trkpt lat="43.46432" lon="6.78089">
        <ele>65</ele>
        <time>2021-04-16T11:22:37+02:00</time>
      </trkpt>
      <trkpt lat="43.46483" lon="6.78072">
        <ele>67</ele>
        <time>2021-04-16T11:22:42+02:00</time>
      </trkpt>
      <trkpt lat="43.46526" lon="6.78069">
        <ele>70</ele>
        <time>2021-04-16T11:22:47+02:00</time>
      </trkpt>
      <trkpt lat="43.46558" lon="6.78069">
        <ele>73</ele>
        <time>2021-04-16T11:22:52+02:00</time>
      </trkpt>
      <trkpt lat="43.46612" lon="6.78121">
        <ele>77</ele>
        <time>2021-04-16T11:22:57+02:00</time>
      </trkpt>
      <trkpt lat="43.46689" lon="6.78191">
        <ele>77</ele>
        <time>2021-04-16T11:23:02+02:00</time>
      </trkpt>
      <trkpt lat="43.46739" lon="6.78227">
        <ele>77</ele>
        <time>2021-04-16T11:23:07+02:00</time>
      </trkpt>
      <trkpt lat="43.46738" lon="6.78244">
        <ele>77</ele>
        <time>2021-04-16T11:23:12+02:00</time>
      </trkpt>
      <trkpt lat="43.46749" lon="6.78264">
        <ele>76</ele>
        <time>2021-04-16T11:23:17+02:00</time>
      </trkpt>
      <trkpt lat="43.46771" lon="6.78344">
        <ele>80</ele>
        <time>2021-04-16T11:23:22+02:00</time>
      </trkpt>
      <trkpt lat="43.46783" lon="6.78417">
        <ele>82</ele>
        <time>2021-04-16T11:23:27+02:00</time>
      </trkpt>
      <trkpt lat="43.46782" lon="6.78457">
        <ele>85</ele>
        <time>2021-04-16T11:23:32+02:00</time>
      </trkpt>
      <trkpt lat="43.46783" lon="6.78507">
        <ele>87</ele>
        <time>2021-04-16T11:23:37+02:00</time>
      </trkpt>
      <trkpt lat="43.46775" lon="6.78581">
        <ele>89</ele>
        <time>2021-04-16T11:23:42+02:00</time>
      </trkpt>
      <trkpt lat="43.46749" lon="6.78634">
        <ele>90</ele>
        <time>2021-04-16T11:23:47+02:00</time>
      </trkpt>
      <trkpt lat="43.46751" lon="6.78656">
        <ele>90</ele>
        <time>2021-04-16T11:23:52+02:00</time>
      </trkpt>
      <trkpt lat="43.46777" lon="6.78653">
        <ele>89</ele>
        <time>2021-04-16T11:23:57+02:00</time>
      </trkpt>
      <trkpt lat="43.46793" lon="6.78676">
        <ele>89</ele>
        <time>2021-04-16T11:24:02+02:00</time>
      </trkpt>
      <trkpt lat="43.46825" lon="6.78763">
        <ele>91</ele>
        <time>2021-04-16T11:24:07+02:00</time>
      </trkpt>
      <trkpt lat="43.46826" lon="6.78826">
        <ele>93</ele>
        <time>2021-04-16T11:24:12+02:00</time>
      </trkpt>
      <trkpt lat="43.46821" lon="6.78863">
        <ele>96</ele>
        <time>2021-04-16T11:24:17+02:00</time>
      </trkpt>
      <trkpt lat="43.46803" lon="6.78899">
        <ele>101</ele>
        <time>2021-04-16T11:24:22+02:00</time>
      </trkpt>
      <trkpt lat="43.46759" lon="6.78957">
        <ele>108</ele>
        <time>2021-04-16T11:24:27+02:00</time>
      </trkpt>
      <trkpt lat="43.46737" lon="6.79051">
        <ele>105</ele>
        <time>2021-04-16T11:24:32+02:00</time>
      </trkpt>
      <trkpt lat="43.46754" lon="6.79106">
        <ele>104</ele>
        <time>2021-04-16T11:24:37+02:00</time>
      </trkpt>
      <trkpt lat="43.46764" lon="6.79156">
        <ele>105</ele>
        <time>2021-04-16T11:24:42+02:00</time>
      </trkpt>
      <trkpt lat="43.46815" lon="6.79243">
        <ele>106</ele>
        <time>2021-04-16T11:24:47+02:00</time>
      </trkpt>
      <trkpt lat="43.46837" lon="6.7926">
        <ele>107</ele>
        <time>2021-04-16T11:24:52+02:00</time>
      </trkpt>
      <trkpt lat="43.46876" lon="6.79266">
        <ele>111</ele>
        <time>2021-04-16T11:24:57+02:00</time>
      </trkpt>
      <trkpt lat="43.46945" lon="6.79243">
        <ele>123</ele>
        <time>2021-04-16T11:25:02+02:00</time>
      </trkpt>
      <trkpt lat="43.46958" lon="6.79252">
        <ele>125</ele>
        <time>2021-04-16T11:25:07+02:00</time>
      </trkpt>
      <trkpt lat="43.46926" lon="6.79322">
        <ele>115</ele>
        <time>2021-04-16T11:25:12+02:00</time>
      </trkpt>
      <trkpt lat="43.46921" lon="6.79352">
        <ele>114</ele>
        <time>2021-04-16T11:25:17+02:00</time>
      </trkpt>
      <trkpt lat="43.46934" lon="6.79368">
        <ele>118</ele>
        <time>2021-04-16T11:25:22+02:00</time>
      </trkpt>
      <trkpt lat="43.46936" lon="6.79379">
        <ele>118</ele>
        <time>2021-04-16T11:25:27+02:00</time>
      </trkpt>
      <trkpt lat="43.46916" lon="6.79426">
        <ele>115</ele>
        <time>2021-04-16T11:25:32+02:00</time>
      </trkpt>
      <trkpt lat="43.46915" lon="6.79468">
        <ele>115</ele>
        <time>2021-04-16T11:25:37+02:00</time>
      </trkpt>
      <trkpt lat="43.46912" lon="6.79501">
        <ele>115</ele>
        <time>2021-04-16T11:25:42+02:00</time>
      </trkpt>
      <trkpt lat="43.47063" lon="6.79429">
        <ele>139</ele>
        <time>2021-04-16T11:25:47+02:00</time>
      </trkpt>
      <trkpt lat="43.47074" lon="6.79433">
        <ele>140</ele>
        <time>2021-04-16T11:25:52+02:00</time>
      </trkpt>
      <trkpt lat="43.47066" lon="6.79486">
        <ele>136</ele>
        <time>2021-04-16T11:25:57+02:00</time>
      </trkpt>
      <trkpt lat="43.47037" lon="6.79564">
        <ele>127</ele>
        <time>2021-04-16T11:26:02+02:00</time>
      </trkpt>
      <trkpt lat="43.47048" lon="6.7958">
        <ele>128</ele>
        <time>2021-04-16T11:26:07+02:00</time>
      </trkpt>
      <trkpt lat="43.47108" lon="6.79593">
        <ele>130</ele>
        <time>2021-04-16T11:26:12+02:00</time>
      </trkpt>
      <trkpt lat="43.47132" lon="6.79576">
        <ele>131</ele>
        <time>2021-04-16T11:26:17+02:00</time>
      </trkpt>
      <trkpt lat="43.47149" lon="6.79541">
        <ele>135</ele>
        <time>2021-04-16T11:26:22+02:00</time>
      </trkpt>
      <trkpt lat="43.47157" lon="6.79481">
        <ele>143</ele>
        <time>2021-04-16T11:26:27+02:00</time>
      </trkpt>
      <trkpt lat="43.47186" lon="6.79356">
        <ele>155</ele>
        <time>2021-04-16T11:26:32+02:00</time>
      </trkpt>
      <trkpt lat="43.47201" lon="6.79326">
        <ele>157</ele>
        <time>2021-04-16T11:26:37+02:00</time>
      </trkpt>
      <trkpt lat="43.47244" lon="6.7929">
        <ele>153</ele>
        <time>2021-04-16T11:26:42+02:00</time>
      </trkpt>
      <trkpt lat="43.47255" lon="6.79289">
        <ele>153</ele>
        <time>2021-04-16T11:26:47+02:00</time>
      </trkpt>
      <trkpt lat="43.4729" lon="6.79306">
        <ele>158</ele>
        <time>2021-04-16T11:26:52+02:00</time>
      </trkpt>
      <trkpt lat="43.47309" lon="6.79333">
        <ele>163</ele>
        <time>2021-04-16T11:26:57+02:00</time>
      </trkpt>
      <trkpt lat="43.4731" lon="6.79356">
        <ele>163</ele>
        <time>2021-04-16T11:27:02+02:00</time>
      </trkpt>
      <trkpt lat="43.47302" lon="6.79415">
        <ele>161</ele>
        <time>2021-04-16T11:27:07+02:00</time>
      </trkpt>
      <trkpt lat="43.47303" lon="6.7946">
        <ele>160</ele>
        <time>2021-04-16T11:27:12+02:00</time>
      </trkpt>
      <trkpt lat="43.47318" lon="6.79522">
        <ele>162</ele>
        <time>2021-04-16T11:27:17+02:00</time>
      </trkpt>
      <trkpt lat="43.4733" lon="6.79586">
        <ele>160</ele>
        <time>2021-04-16T11:27:22+02:00</time>
      </trkpt>
      <trkpt lat="43.47355" lon="6.79623">
        <ele>158</ele>
        <time>2021-04-16T11:27:27+02:00</time>
      </trkpt>
      <trkpt lat="43.47375" lon="6.79632">
        <ele>159</ele>
        <time>2021-04-16T11:27:32+02:00</time>
      </trkpt>
      <trkpt lat="43.4742" lon="6.79637">
        <ele>163</ele>
        <time>2021-04-16T11:27:37+02:00</time>
      </trkpt>
      <trkpt lat="43.47464" lon="6.79615">
        <ele>162</ele>
        <time>2021-04-16T11:27:42+02:00</time>
      </trkpt>
      <trkpt lat="43.47515" lon="6.79509">
        <ele>181</ele>
        <time>2021-04-16T11:27:47+02:00</time>
      </trkpt>
      <trkpt lat="43.47668" lon="6.79385">
        <ele>184</ele>
        <time>2021-04-16T11:27:52+02:00</time>
      </trkpt>
      <trkpt lat="43.47685" lon="6.79386">
        <ele>184</ele>
        <time>2021-04-16T11:27:57+02:00</time>
      </trkpt>
      <trkpt lat="43.4772" lon="6.79405">
        <ele>179</ele>
        <time>2021-04-16T11:28:02+02:00</time>
      </trkpt>
      <trkpt lat="43.47747" lon="6.79406">
        <ele>179</ele>
        <time>2021-04-16T11:28:07+02:00</time>
      </trkpt>
      <trkpt lat="43.47791" lon="6.79407">
        <ele>177</ele>
        <time>2021-04-16T11:28:12+02:00</time>
      </trkpt>
      <trkpt lat="43.47807" lon="6.79393">
        <ele>182</ele>
        <time>2021-04-16T11:28:17+02:00</time>
      </trkpt>
      <trkpt lat="43.4782" lon="6.7939">
        <ele>183</ele>
        <time>2021-04-16T11:28:22+02:00</time>
      </trkpt>
      <trkpt lat="43.47967" lon="6.79323">
        <ele>191</ele>
        <time>2021-04-16T11:28:27+02:00</time>
      </trkpt>
      <trkpt lat="43.48045" lon="6.79313">
        <ele>192</ele>
        <time>2021-04-16T11:28:32+02:00</time>
      </trkpt>
      <trkpt lat="43.48066" lon="6.79294">
        <ele>198</ele>
        <time>2021-04-16T11:28:37+02:00</time>
      </trkpt>
      <trkpt lat="43.48076" lon="6.79295">
        <ele>198</ele>
        <time>2021-04-16T11:28:42+02:00</time>
      </trkpt>
      <trkpt lat="43.48105" lon="6.79317">
        <ele>194</ele>
        <time>2021-04-16T11:28:47+02:00</time>
      </trkpt>
      <trkpt lat="43.48133" lon="6.79302">
        <ele>202</ele>
        <time>2021-04-16T11:28:52+02:00</time>
      </trkpt>
      <trkpt lat="43.48217" lon="6.79341">
        <ele>204</ele>
        <time>2021-04-16T11:28:57+02:00</time>
      </trkpt>
      <trkpt lat="43.48267" lon="6.79323">
        <ele>214</ele>
        <time>2021-04-16T11:29:02+02:00</time>
      </trkpt>
      <trkpt lat="43.48284" lon="6.79304">
        <ele>220</ele>
        <time>2021-04-16T11:29:07+02:00</time>
      </trkpt>
      <trkpt lat="43.48295" lon="6.79305">
        <ele>222</ele>
        <time>2021-04-16T11:29:12+02:00</time>
      </trkpt>
      <trkpt lat="43.48296" lon="6.79339">
        <ele>218</ele>
        <time>2021-04-16T11:29:17+02:00</time>
      </trkpt>
      <trkpt lat="43.48306" lon="6.79365">
        <ele>220</ele>
        <time>2021-04-16T11:29:22+02:00</time>
      </trkpt>
      <trkpt lat="43.48325" lon="6.79386">
        <ele>223</ele>
        <time>2021-04-16T11:29:27+02:00</time>
      </trkpt>
      <trkpt lat="43.48342" lon="6.79451">
        <ele>233</ele>
        <time>2021-04-16T11:29:32+02:00</time>
      </trkpt>
      <trkpt lat="43.48334" lon="6.7946">
        <ele>232</ele>
        <time>2021-04-16T11:29:37+02:00</time>
      </trkpt>
      <trkpt lat="43.48305" lon="6.79448">
        <ele>227</ele>
        <time>2021-04-16T11:29:42+02:00</time>
      </trkpt>
      <trkpt lat="43.48273" lon="6.79442">
        <ele>222</ele>
        <time>2021-04-16T11:29:47+02:00</time>
      </trkpt>
      <trkpt lat="43.48231" lon="6.79449">
        <ele>220</ele>
        <time>2021-04-16T11:29:52+02:00</time>
      </trkpt>
      <trkpt lat="43.4817" lon="6.79494">
        <ele>226</ele>
        <time>2021-04-16T11:29:57+02:00</time>
      </trkpt>
      <trkpt lat="43.48112" lon="6.79543">
        <ele>229</ele>
        <time>2021-04-16T11:30:02+02:00</time>
      </trkpt>
      <trkpt lat="43.48092" lon="6.79577">
        <ele>231</ele>
        <time>2021-04-16T11:30:07+02:00</time>
      </trkpt>
      <trkpt lat="43.48084" lon="6.7964">
        <ele>232</ele>
        <time>2021-04-16T11:30:12+02:00</time>
      </trkpt>
      <trkpt lat="43.4811" lon="6.79735">
        <ele>246</ele>
        <time>2021-04-16T11:30:17+02:00</time>
      </trkpt>
      <trkpt lat="43.48112" lon="6.79765">
        <ele>249</ele>
        <time>2021-04-16T11:30:22+02:00</time>
      </trkpt>
      <trkpt lat="43.48094" lon="6.79825">
        <ele>250</ele>
        <time>2021-04-16T11:30:27+02:00</time>
      </trkpt>
      <trkpt lat="43.48056" lon="6.79883">
        <ele>253</ele>
        <time>2021-04-16T11:30:32+02:00</time>
      </trkpt>
      <trkpt lat="43.4805" lon="6.799">
        <ele>254</ele>
        <time>2021-04-16T11:30:37+02:00</time>
      </trkpt>
      <trkpt lat="43.48068" lon="6.79921">
        <ele>254</ele>
        <time>2021-04-16T11:30:42+02:00</time>
      </trkpt>
      <trkpt lat="43.48148" lon="6.80011">
        <ele>258</ele>
        <time>2021-04-16T11:30:47+02:00</time>
      </trkpt>
      <trkpt lat="43.48214" lon="6.80056">
        <ele>257</ele>
        <time>2021-04-16T11:30:52+02:00</time>
      </trkpt>
      <trkpt lat="43.4827" lon="6.80062">
        <ele>260</ele>
        <time>2021-04-16T11:30:57+02:00</time>
      </trkpt>
      <trkpt lat="43.4832" lon="6.80045">
        <ele>263</ele>
        <time>2021-04-16T11:31:02+02:00</time>
      </trkpt>
      <trkpt lat="43.48383" lon="6.79997">
        <ele>270</ele>
        <time>2021-04-16T11:31:07+02:00</time>
      </trkpt>
      <trkpt lat="43.48393" lon="6.79981">
        <ele>273</ele>
        <time>2021-04-16T11:31:12+02:00</time>
      </trkpt>
      <trkpt lat="43.48413" lon="6.79936">
        <ele>283</ele>
        <time>2021-04-16T11:31:17+02:00</time>
      </trkpt>
      <trkpt lat="43.48426" lon="6.79931">
        <ele>286</ele>
        <time>2021-04-16T11:31:22+02:00</time>
      </trkpt>
      <trkpt lat="43.48478" lon="6.80008">
        <ele>281</ele>
        <time>2021-04-16T11:31:27+02:00</time>
      </trkpt>
      <trkpt lat="43.48485" lon="6.80048">
        <ele>278</ele>
        <time>2021-04-16T11:31:32+02:00</time>
      </trkpt>
      <trkpt lat="43.48491" lon="6.80075">
        <ele>276</ele>
        <time>2021-04-16T11:31:37+02:00</time>
      </trkpt>
      <trkpt lat="43.48521" lon="6.80144">
        <ele>277</ele>
        <time>2021-04-16T11:31:42+02:00</time>
      </trkpt>
      <trkpt lat="43.48587" lon="6.80223">
        <ele>285</ele>
        <time>2021-04-16T11:31:47+02:00</time>
      </trkpt>
      <trkpt lat="43.48663" lon="6.80302">
        <ele>289</ele>
        <time>2021-04-16T11:31:52+02:00</time>
      </trkpt>
      <trkpt lat="43.48688" lon="6.80337">
        <ele>280</ele>
        <time>2021-04-16T11:31:57+02:00</time>
      </trkpt>
      <trkpt lat="43.48706" lon="6.80344">
        <ele>277</ele>
        <time>2021-04-16T11:32:02+02:00</time>
      </trkpt>
      <trkpt lat="43.48737" lon="6.80313">
        <ele>282</ele>
        <time>2021-04-16T11:32:07+02:00</time>
      </trkpt>
      <trkpt lat="43.48748" lon="6.8026">
        <ele>292</ele>
        <time>2021-04-16T11:32:12+02:00</time>
      </trkpt>
      <trkpt lat="43.48778" lon="6.80176">
        <ele>295</ele>
        <time>2021-04-16T11:32:17+02:00</time>
      </trkpt>
      <trkpt lat="43.48784" lon="6.80128">
        <ele>297</ele>
        <time>2021-04-16T11:32:22+02:00</time>
      </trkpt>
      <trkpt lat="43.48781" lon="6.80077">
        <ele>301</ele>
        <time>2021-04-16T11:32:27+02:00</time>
      </trkpt>
      <trkpt lat="43.48731" lon="6.79961">
        <ele>312</ele>
        <time>2021-04-16T11:32:32+02:00</time>
      </trkpt>
      <trkpt lat="43.48733" lon="6.79902">
        <ele>315</ele>
        <time>2021-04-16T11:32:37+02:00</time>
      </trkpt>
      <trkpt lat="43.48753" lon="6.79862">
        <ele>317</ele>
        <time>2021-04-16T11:32:42+02:00</time>
      </trkpt>
      <trkpt lat="43.48801" lon="6.79819">
        <ele>314</ele>
        <time>2021-04-16T11:32:47+02:00</time>
      </trkpt>
      <trkpt lat="43.48821" lon="6.79786">
        <ele>315</ele>
        <time>2021-04-16T11:32:52+02:00</time>
      </trkpt>
      <trkpt lat="43.48843" lon="6.79727">
        <ele>319</ele>
        <time>2021-04-16T11:32:57+02:00</time>
      </trkpt>
      <trkpt lat="43.48885" lon="6.79568">
        <ele>337</ele>
        <time>2021-04-16T11:33:02+02:00</time>
      </trkpt>
      <trkpt lat="43.48897" lon="6.79561">
        <ele>337</ele>
        <time>2021-04-16T11:33:07+02:00</time>
      </trkpt>
      <trkpt lat="43.48907" lon="6.79573">
        <ele>332</ele>
        <time>2021-04-16T11:33:12+02:00</time>
      </trkpt>
      <trkpt lat="43.48939" lon="6.79604">
        <ele>327</ele>
        <time>2021-04-16T11:33:17+02:00</time>
      </trkpt>
      <trkpt lat="43.48968" lon="6.7961">
        <ele>331</ele>
        <time>2021-04-16T11:33:22+02:00</time>
      </trkpt>
      <trkpt lat="43.49" lon="6.79594">
        <ele>340</ele>
        <time>2021-04-16T11:33:27+02:00</time>
      </trkpt>
      <trkpt lat="43.49017" lon="6.79609">
        <ele>343</ele>
        <time>2021-04-16T11:33:32+02:00</time>
      </trkpt>
      <trkpt lat="43.49036" lon="6.79689">
        <ele>335</ele>
        <time>2021-04-16T11:33:37+02:00</time>
      </trkpt>
      <trkpt lat="43.49043" lon="6.79746">
        <ele>330</ele>
        <time>2021-04-16T11:33:42+02:00</time>
      </trkpt>
      <trkpt lat="43.49122" lon="6.79856">
        <ele>340</ele>
        <time>2021-04-16T11:33:47+02:00</time>
      </trkpt>
      <trkpt lat="43.4915" lon="6.79944">
        <ele>342</ele>
        <time>2021-04-16T11:33:52+02:00</time>
      </trkpt>
      <trkpt lat="43.49157" lon="6.79979">
        <ele>343</ele>
        <time>2021-04-16T11:33:57+02:00</time>
      </trkpt>
      <trkpt lat="43.4915" lon="6.79996">
        <ele>341</ele>
        <time>2021-04-16T11:34:02+02:00</time>
      </trkpt>
      <trkpt lat="43.4908" lon="6.80004">
        <ele>331</ele>
        <time>2021-04-16T11:34:07+02:00</time>
      </trkpt>
      <trkpt lat="43.49065" lon="6.80014">
        <ele>327</ele>
        <time>2021-04-16T11:34:12+02:00</time>
      </trkpt>
      <trkpt lat="43.49054" lon="6.80031">
        <ele>324</ele>
        <time>2021-04-16T11:34:17+02:00</time>
      </trkpt>
      <trkpt lat="43.4903" lon="6.8019">
        <ele>315</ele>
        <time>2021-04-16T11:34:22+02:00</time>
      </trkpt>
      <trkpt lat="43.49057" lon="6.80306">
        <ele>310</ele>
        <time>2021-04-16T11:34:27+02:00</time>
      </trkpt>
      <trkpt lat="43.49066" lon="6.80309">
        <ele>310</ele>
        <time>2021-04-16T11:34:32+02:00</time>
      </trkpt>
      <trkpt lat="43.49149" lon="6.80229">
        <ele>311</ele>
        <time>2021-04-16T11:34:37+02:00</time>
      </trkpt>
      <trkpt lat="43.49214" lon="6.80162">
        <ele>316</ele>
        <time>2021-04-16T11:34:42+02:00</time>
      </trkpt>
      <trkpt lat="43.49225" lon="6.80161">
        <ele>314</ele>
        <time>2021-04-16T11:34:47+02:00</time>
      </trkpt>
      <trkpt lat="43.49253" lon="6.802">
        <ele>303</ele>
        <time>2021-04-16T11:34:52+02:00</time>
      </trkpt>
      <trkpt lat="43.49292" lon="6.80198">
        <ele>309</ele>
        <time>2021-04-16T11:34:57+02:00</time>
      </trkpt>
      <trkpt lat="43.49303" lon="6.80245">
        <ele>303</ele>
        <time>2021-04-16T11:35:02+02:00</time>
      </trkpt>
      <trkpt lat="43.49308" lon="6.80332">
        <ele>291</ele>
        <time>2021-04-16T11:35:07+02:00</time>
      </trkpt>
      <trkpt lat="43.49322" lon="6.80383">
        <ele>284</ele>
        <time>2021-04-16T11:35:12+02:00</time>
      </trkpt>
      <trkpt lat="43.49347" lon="6.80408">
        <ele>283</ele>
        <time>2021-04-16T11:35:17+02:00</time>
      </trkpt>
      <trkpt lat="43.49476" lon="6.80446">
        <ele>291</ele>
        <time>2021-04-16T11:35:22+02:00</time>
      </trkpt>
      <trkpt lat="43.49485" lon="6.80465">
        <ele>292</ele>
        <time>2021-04-16T11:35:27+02:00</time>
      </trkpt>
      <trkpt lat="43.49471" lon="6.80477">
        <ele>289</ele>
        <time>2021-04-16T11:35:32+02:00</time>
      </trkpt>
      <trkpt lat="43.49435" lon="6.80493">
        <ele>280</ele>
        <time>2021-04-16T11:35:37+02:00</time>
      </trkpt>
      <trkpt lat="43.49407" lon="6.80513">
        <ele>274</ele>
        <time>2021-04-16T11:35:42+02:00</time>
      </trkpt>
      <trkpt lat="43.49354" lon="6.80615">
        <ele>261</ele>
        <time>2021-04-16T11:35:47+02:00</time>
      </trkpt>
      <trkpt lat="43.49364" lon="6.80658">
        <ele>267</ele>
        <time>2021-04-16T11:35:52+02:00</time>
      </trkpt>
      <trkpt lat="43.49363" lon="6.80707">
        <ele>266</ele>
        <time>2021-04-16T11:35:57+02:00</time>
      </trkpt>
      <trkpt lat="43.49399" lon="6.80792">
        <ele>274</ele>
        <time>2021-04-16T11:36:02+02:00</time>
      </trkpt>
      <trkpt lat="43.49403" lon="6.80818">
        <ele>275</ele>
        <time>2021-04-16T11:36:07+02:00</time>
      </trkpt>
      <trkpt lat="43.49379" lon="6.80939">
        <ele>270</ele>
        <time>2021-04-16T11:36:12+02:00</time>
      </trkpt>
      <trkpt lat="43.49368" lon="6.80969">
        <ele>265</ele>
        <time>2021-04-16T11:36:17+02:00</time>
      </trkpt>
      <trkpt lat="43.49338" lon="6.80993">
        <ele>258</ele>
        <time>2021-04-16T11:36:22+02:00</time>
      </trkpt>
      <trkpt lat="43.493" lon="6.81006">
        <ele>252</ele>
        <time>2021-04-16T11:36:27+02:00</time>
      </trkpt>
      <trkpt lat="43.4926" lon="6.81011">
        <ele>247</ele>
        <time>2021-04-16T11:36:32+02:00</time>
      </trkpt>
      <trkpt lat="43.49224" lon="6.81002">
        <ele>242</ele>
        <time>2021-04-16T11:36:37+02:00</time>
      </trkpt>
      <trkpt lat="43.49164" lon="6.8095">
        <ele>237</ele>
        <time>2021-04-16T11:36:42+02:00</time>
      </trkpt>
      <trkpt lat="43.49137" lon="6.80909">
        <ele>233</ele>
        <time>2021-04-16T11:36:47+02:00</time>
      </trkpt>
      <trkpt lat="43.49133" lon="6.80862">
        <ele>232</ele>
        <time>2021-04-16T11:36:52+02:00</time>
      </trkpt>
      <trkpt lat="43.49139" lon="6.80802">
        <ele>232</ele>
        <time>2021-04-16T11:36:57+02:00</time>
      </trkpt>
      <trkpt lat="43.49159" lon="6.80751">
        <ele>230</ele>
        <time>2021-04-16T11:37:02+02:00</time>
      </trkpt>
      <trkpt lat="43.49203" lon="6.80689">
        <ele>230</ele>
        <time>2021-04-16T11:37:07+02:00</time>
      </trkpt>
      <trkpt lat="43.49213" lon="6.80667">
        <ele>229</ele>
        <time>2021-04-16T11:37:12+02:00</time>
      </trkpt>
      <trkpt lat="43.4924" lon="6.80641">
        <ele>231</ele>
        <time>2021-04-16T11:37:17+02:00</time>
      </trkpt>
      <trkpt lat="43.49245" lon="6.8063">
        <ele>231</ele>
        <time>2021-04-16T11:37:22+02:00</time>
      </trkpt>
      <trkpt lat="43.49234" lon="6.80625">
        <ele>231</ele>
        <time>2021-04-16T11:37:27+02:00</time>
      </trkpt>
      <trkpt lat="43.49217" lon="6.80646">
        <ele>230</ele>
        <time>2021-04-16T11:37:32+02:00</time>
      </trkpt>
      <trkpt lat="43.49202" lon="6.80655">
        <ele>229</ele>
        <time>2021-04-16T11:37:37+02:00</time>
      </trkpt>
      <trkpt lat="43.49113" lon="6.80756">
        <ele>224</ele>
        <time>2021-04-16T11:37:42+02:00</time>
      </trkpt>
      <trkpt lat="43.491" lon="6.80816">
        <ele>220</ele>
        <time>2021-04-16T11:37:47+02:00</time>
      </trkpt>
      <trkpt lat="43.49079" lon="6.8087">
        <ele>209</ele>
        <time>2021-04-16T11:37:52+02:00</time>
      </trkpt>
      <trkpt lat="43.49074" lon="6.80951">
        <ele>200</ele>
        <time>2021-04-16T11:37:57+02:00</time>
      </trkpt>
      <trkpt lat="43.49177" lon="6.81111">
        <ele>209</ele>
        <time>2021-04-16T11:38:02+02:00</time>
      </trkpt>
      <trkpt lat="43.49208" lon="6.8112">
        <ele>211</ele>
        <time>2021-04-16T11:38:07+02:00</time>
      </trkpt>
      <trkpt lat="43.49211" lon="6.81137">
        <ele>210</ele>
        <time>2021-04-16T11:38:12+02:00</time>
      </trkpt>
      <trkpt lat="43.49159" lon="6.81138">
        <ele>211</ele>
        <time>2021-04-16T11:38:17+02:00</time>
      </trkpt>
      <trkpt lat="43.49133" lon="6.81111">
        <ele>208</ele>
        <time>2021-04-16T11:38:22+02:00</time>
      </trkpt>
      <trkpt lat="43.49091" lon="6.81086">
        <ele>200</ele>
        <time>2021-04-16T11:38:27+02:00</time>
      </trkpt>
      <trkpt lat="43.49057" lon="6.81043">
        <ele>198</ele>
        <time>2021-04-16T11:38:32+02:00</time>
      </trkpt>
      <trkpt lat="43.4899" lon="6.80997">
        <ele>185</ele>
        <time>2021-04-16T11:38:37+02:00</time>
      </trkpt>
      <trkpt lat="43.48942" lon="6.80954">
        <ele>181</ele>
        <time>2021-04-16T11:38:42+02:00</time>
      </trkpt>
      <trkpt lat="43.48887" lon="6.80935">
        <ele>177</ele>
        <time>2021-04-16T11:38:47+02:00</time>
      </trkpt>
      <trkpt lat="43.48805" lon="6.80859">
        <ele>163</ele>
        <time>2021-04-16T11:38:52+02:00</time>
      </trkpt>
      <trkpt lat="43.48752" lon="6.80826">
        <ele>156</ele>
        <time>2021-04-16T11:38:57+02:00</time>
      </trkpt>
      <trkpt lat="43.48705" lon="6.80836">
        <ele>155</ele>
        <time>2021-04-16T11:39:02+02:00</time>
      </trkpt>
      <trkpt lat="43.48669" lon="6.80814">
        <ele>159</ele>
        <time>2021-04-16T11:39:07+02:00</time>
      </trkpt>
      <trkpt lat="43.48631" lon="6.8081">
        <ele>160</ele>
        <time>2021-04-16T11:39:12+02:00</time>
      </trkpt>
      <trkpt lat="43.4858" lon="6.80783">
        <ele>161</ele>
        <time>2021-04-16T11:39:17+02:00</time>
      </trkpt>
      <trkpt lat="43.4854" lon="6.80772">
        <ele>158</ele>
        <time>2021-04-16T11:39:22+02:00</time>
      </trkpt>
      <trkpt lat="43.48472" lon="6.80758">
        <ele>150</ele>
        <time>2021-04-16T11:39:27+02:00</time>
      </trkpt>
      <trkpt lat="43.48408" lon="6.80734">
        <ele>147</ele>
        <time>2021-04-16T11:39:32+02:00</time>
      </trkpt>
      <trkpt lat="43.4838" lon="6.80731">
        <ele>145</ele>
        <time>2021-04-16T11:39:37+02:00</time>
      </trkpt>
      <trkpt lat="43.48356" lon="6.80752">
        <ele>138</ele>
        <time>2021-04-16T11:39:42+02:00</time>
      </trkpt>
      <trkpt lat="43.48333" lon="6.80761">
        <ele>139</ele>
        <time>2021-04-16T11:39:47+02:00</time>
      </trkpt>
      <trkpt lat="43.48293" lon="6.8076">
        <ele>134</ele>
        <time>2021-04-16T11:39:52+02:00</time>
      </trkpt>
      <trkpt lat="43.4829" lon="6.80737">
        <ele>134</ele>
        <time>2021-04-16T11:39:57+02:00</time>
      </trkpt>
      <trkpt lat="43.48275" lon="6.80706">
        <ele>138</ele>
        <time>2021-04-16T11:40:02+02:00</time>
      </trkpt>
      <trkpt lat="43.48233" lon="6.80688">
        <ele>136</ele>
        <time>2021-04-16T11:40:07+02:00</time>
      </trkpt>
      <trkpt lat="43.48233" lon="6.8065">
        <ele>142</ele>
        <time>2021-04-16T11:40:12+02:00</time>
      </trkpt>
      <trkpt lat="43.48226" lon="6.80598">
        <ele>152</ele>
        <time>2021-04-16T11:40:17+02:00</time>
      </trkpt>
      <trkpt lat="43.48229" lon="6.80532">
        <ele>159</ele>
        <time>2021-04-16T11:40:22+02:00</time>
      </trkpt>
      <trkpt lat="43.48245" lon="6.80475">
        <ele>163</ele>
        <time>2021-04-16T11:40:27+02:00</time>
      </trkpt>
      <trkpt lat="43.48245" lon="6.80435">
        <ele>165</ele>
        <time>2021-04-16T11:40:32+02:00</time>
      </trkpt>
      <trkpt lat="43.48236" lon="6.80427">
        <ele>167</ele>
        <time>2021-04-16T11:40:37+02:00</time>
      </trkpt>
      <trkpt lat="43.48225" lon="6.80455">
        <ele>167</ele>
        <time>2021-04-16T11:40:42+02:00</time>
      </trkpt>
      <trkpt lat="43.48117" lon="6.80533">
        <ele>174</ele>
        <time>2021-04-16T11:40:47+02:00</time>
      </trkpt>
      <trkpt lat="43.48081" lon="6.80591">
        <ele>175</ele>
        <time>2021-04-16T11:40:52+02:00</time>
      </trkpt>
      <trkpt lat="43.4806" lon="6.80591">
        <ele>174</ele>
        <time>2021-04-16T11:40:57+02:00</time>
      </trkpt>
      <trkpt lat="43.48036" lon="6.80558">
        <ele>177</ele>
        <time>2021-04-16T11:41:02+02:00</time>
      </trkpt>
      <trkpt lat="43.48012" lon="6.80548">
        <ele>177</ele>
        <time>2021-04-16T11:41:07+02:00</time>
      </trkpt>
      <trkpt lat="43.47944" lon="6.80495">
        <ele>167</ele>
        <time>2021-04-16T11:41:12+02:00</time>
      </trkpt>
      <trkpt lat="43.47891" lon="6.80455">
        <ele>162</ele>
        <time>2021-04-16T11:41:17+02:00</time>
      </trkpt>
      <trkpt lat="43.4784" lon="6.80407">
        <ele>157</ele>
        <time>2021-04-16T11:41:22+02:00</time>
      </trkpt>
      <trkpt lat="43.47797" lon="6.80386">
        <ele>149</ele>
        <time>2021-04-16T11:41:27+02:00</time>
      </trkpt>
      <trkpt lat="43.47735" lon="6.80404">
        <ele>134</ele>
        <time>2021-04-16T11:41:32+02:00</time>
      </trkpt>
      <trkpt lat="43.47723" lon="6.8039">
        <ele>131</ele>
        <time>2021-04-16T11:41:37+02:00</time>
      </trkpt>
      <trkpt lat="43.47729" lon="6.80356">
        <ele>133</ele>
        <time>2021-04-16T11:41:42+02:00</time>
      </trkpt>
      <trkpt lat="43.47772" lon="6.80298">
        <ele>143</ele>
        <time>2021-04-16T11:41:47+02:00</time>
      </trkpt>
      <trkpt lat="43.47783" lon="6.80254">
        <ele>143</ele>
        <time>2021-04-16T11:41:52+02:00</time>
      </trkpt>
      <trkpt lat="43.47781" lon="6.80207">
        <ele>145</ele>
        <time>2021-04-16T11:41:57+02:00</time>
      </trkpt>
      <trkpt lat="43.4775" lon="6.802">
        <ele>135</ele>
        <time>2021-04-16T11:42:02+02:00</time>
      </trkpt>
      <trkpt lat="43.47742" lon="6.80162">
        <ele>140</ele>
        <time>2021-04-16T11:42:07+02:00</time>
      </trkpt>
      <trkpt lat="43.47728" lon="6.80152">
        <ele>144</ele>
        <time>2021-04-16T11:42:12+02:00</time>
      </trkpt>
      <trkpt lat="43.47694" lon="6.80195">
        <ele>137</ele>
        <time>2021-04-16T11:42:17+02:00</time>
      </trkpt>
      <trkpt lat="43.47662" lon="6.80227">
        <ele>129</ele>
        <time>2021-04-16T11:42:22+02:00</time>
      </trkpt>
      <trkpt lat="43.47609" lon="6.80261">
        <ele>125</ele>
        <time>2021-04-16T11:42:27+02:00</time>
      </trkpt>
      <trkpt lat="43.47545" lon="6.80338">
        <ele>108</ele>
        <time>2021-04-16T11:42:32+02:00</time>
      </trkpt>
      <trkpt lat="43.47516" lon="6.80372">
        <ele>103</ele>
        <time>2021-04-16T11:42:37+02:00</time>
      </trkpt>
      <trkpt lat="43.47492" lon="6.80364">
        <ele>103</ele>
        <time>2021-04-16T11:42:42+02:00</time>
      </trkpt>
      <trkpt lat="43.47473" lon="6.80275">
        <ele>108</ele>
        <time>2021-04-16T11:42:47+02:00</time>
      </trkpt>
      <trkpt lat="43.47471" lon="6.80203">
        <ele>113</ele>
        <time>2021-04-16T11:42:52+02:00</time>
      </trkpt>
      <trkpt lat="43.47464" lon="6.80166">
        <ele>114</ele>
        <time>2021-04-16T11:42:57+02:00</time>
      </trkpt>
      <trkpt lat="43.47456" lon="6.8017">
        <ele>114</ele>
        <time>2021-04-16T11:43:02+02:00</time>
      </trkpt>
      <trkpt lat="43.47443" lon="6.80195">
        <ele>110</ele>
        <time>2021-04-16T11:43:07+02:00</time>
      </trkpt>
      <trkpt lat="43.47424" lon="6.80251">
        <ele>103</ele>
        <time>2021-04-16T11:43:12+02:00</time>
      </trkpt>
      <trkpt lat="43.47395" lon="6.80283">
        <ele>105</ele>
        <time>2021-04-16T11:43:17+02:00</time>
      </trkpt>
      <trkpt lat="43.4742" lon="6.80339">
        <ele>95</ele>
        <time>2021-04-16T11:43:22+02:00</time>
      </trkpt>
      <trkpt lat="43.47421" lon="6.80387">
        <ele>92</ele>
        <time>2021-04-16T11:43:27+02:00</time>
      </trkpt>
      <trkpt lat="43.47385" lon="6.80463">
        <ele>89</ele>
        <time>2021-04-16T11:43:32+02:00</time>
      </trkpt>
      <trkpt lat="43.47357" lon="6.80472">
        <ele>90</ele>
        <time>2021-04-16T11:43:37+02:00</time>
      </trkpt>
      <trkpt lat="43.47352" lon="6.80485">
        <ele>87</ele>
        <time>2021-04-16T11:43:42+02:00</time>
      </trkpt>
      <trkpt lat="43.4731" lon="6.80496">
        <ele>86</ele>
        <time>2021-04-16T11:43:47+02:00</time>
      </trkpt>
      <trkpt lat="43.47255" lon="6.80494">
        <ele>89</ele>
        <time>2021-04-16T11:43:52+02:00</time>
      </trkpt>
      <trkpt lat="43.47211" lon="6.80502">
        <ele>84</ele>
        <time>2021-04-16T11:43:57+02:00</time>
      </trkpt>
      <trkpt lat="43.47166" lon="6.80491">
        <ele>82</ele>
        <time>2021-04-16T11:44:02+02:00</time>
      </trkpt>
      <trkpt lat="43.4715" lon="6.80457">
        <ele>85</ele>
        <time>2021-04-16T11:44:07+02:00</time>
      </trkpt>
      <trkpt lat="43.47149" lon="6.80411">
        <ele>89</ele>
        <time>2021-04-16T11:44:12+02:00</time>
      </trkpt>
      <trkpt lat="43.47157" lon="6.80377">
        <ele>92</ele>
        <time>2021-04-16T11:44:17+02:00</time>
      </trkpt>
      <trkpt lat="43.47159" lon="6.8035">
        <ele>94</ele>
        <time>2021-04-16T11:44:22+02:00</time>
      </trkpt>
      <trkpt lat="43.47153" lon="6.80322">
        <ele>94</ele>
        <time>2021-04-16T11:44:27+02:00</time>
      </trkpt>
      <trkpt lat="43.47146" lon="6.8032">
        <ele>93</ele>
        <time>2021-04-16T11:44:32+02:00</time>
      </trkpt>
      <trkpt lat="43.47145" lon="6.80351">
        <ele>92</ele>
        <time>2021-04-16T11:44:37+02:00</time>
      </trkpt>
      <trkpt lat="43.47138" lon="6.8037">
        <ele>90</ele>
        <time>2021-04-16T11:44:42+02:00</time>
      </trkpt>
      <trkpt lat="43.47131" lon="6.80404">
        <ele>88</ele>
        <time>2021-04-16T11:44:47+02:00</time>
      </trkpt>
      <trkpt lat="43.47119" lon="6.804">
        <ele>86</ele>
        <time>2021-04-16T11:44:52+02:00</time>
      </trkpt>
      <trkpt lat="43.471" lon="6.80388">
        <ele>84</ele>
        <time>2021-04-16T11:44:57+02:00</time>
      </trkpt>
      <trkpt lat="43.47091" lon="6.80361">
        <ele>84</ele>
        <time>2021-04-16T11:45:02+02:00</time>
      </trkpt>
      <trkpt lat="43.47091" lon="6.80314">
        <ele>85</ele>
        <time>2021-04-16T11:45:07+02:00</time>
      </trkpt>
      <trkpt lat="43.47073" lon="6.80271">
        <ele>87</ele>
        <time>2021-04-16T11:45:12+02:00</time>
      </trkpt>
      <trkpt lat="43.47064" lon="6.80217">
        <ele>89</ele>
        <time>2021-04-16T11:45:17+02:00</time>
      </trkpt>
      <trkpt lat="43.47068" lon="6.80177">
        <ele>90</ele>
        <time>2021-04-16T11:45:22+02:00</time>
      </trkpt>
      <trkpt lat="43.47048" lon="6.80143">
        <ele>93</ele>
        <time>2021-04-16T11:45:27+02:00</time>
      </trkpt>
      <trkpt lat="43.4702" lon="6.80113">
        <ele>95</ele>
        <time>2021-04-16T11:45:32+02:00</time>
      </trkpt>
      <trkpt lat="43.47026" lon="6.80093">
        <ele>96</ele>
        <time>2021-04-16T11:45:37+02:00</time>
      </trkpt>
      <trkpt lat="43.47021" lon="6.80068">
        <ele>99</ele>
        <time>2021-04-16T11:45:42+02:00</time>
      </trkpt>
      <trkpt lat="43.47007" lon="6.80066">
        <ele>100</ele>
        <time>2021-04-16T11:45:47+02:00</time>
      </trkpt>
      <trkpt lat="43.46996" lon="6.80076">
        <ele>99</ele>
        <time>2021-04-16T11:45:52+02:00</time>
      </trkpt>
      <trkpt lat="43.46982" lon="6.80091">
        <ele>97</ele>
        <time>2021-04-16T11:45:57+02:00</time>
      </trkpt>
      <trkpt lat="43.46945" lon="6.80089">
        <ele>96</ele>
        <time>2021-04-16T11:46:02+02:00</time>
      </trkpt>
      <trkpt lat="43.46889" lon="6.80063">
        <ele>98</ele>
        <time>2021-04-16T11:46:07+02:00</time>
      </trkpt>
      <trkpt lat="43.46801" lon="6.80036">
        <ele>96</ele>
        <time>2021-04-16T11:46:12+02:00</time>
      </trkpt>
      <trkpt lat="43.46769" lon="6.79989">
        <ele>96</ele>
        <time>2021-04-16T11:46:17+02:00</time>
      </trkpt>
      <trkpt lat="43.46747" lon="6.79907">
        <ele>91</ele>
        <time>2021-04-16T11:46:22+02:00</time>
      </trkpt>
      <trkpt lat="43.46785" lon="6.79879">
        <ele>93</ele>
        <time>2021-04-16T11:46:27+02:00</time>
      </trkpt>
      <trkpt lat="43.46806" lon="6.79828">
        <ele>91</ele>
        <time>2021-04-16T11:46:32+02:00</time>
      </trkpt>
      <trkpt lat="43.46851" lon="6.7978">
        <ele>91</ele>
        <time>2021-04-16T11:46:37+02:00</time>
      </trkpt>
      <trkpt lat="43.46863" lon="6.79753">
        <ele>88</ele>
        <time>2021-04-16T11:46:42+02:00</time>
      </trkpt>
      <trkpt lat="43.46848" lon="6.79727">
        <ele>91</ele>
        <time>2021-04-16T11:46:47+02:00</time>
      </trkpt>
      <trkpt lat="43.46791" lon="6.7972">
        <ele>90</ele>
        <time>2021-04-16T11:46:52+02:00</time>
      </trkpt>
      <trkpt lat="43.46745" lon="6.79708">
        <ele>90</ele>
        <time>2021-04-16T11:46:57+02:00</time>
      </trkpt>
      <trkpt lat="43.46699" lon="6.79669">
        <ele>89</ele>
        <time>2021-04-16T11:47:02+02:00</time>
      </trkpt>
      <trkpt lat="43.46678" lon="6.79603">
        <ele>93</ele>
        <time>2021-04-16T11:47:07+02:00</time>
      </trkpt>
      <trkpt lat="43.46623" lon="6.79557">
        <ele>92</ele>
        <time>2021-04-16T11:47:12+02:00</time>
      </trkpt>
      <trkpt lat="43.46602" lon="6.79512">
        <ele>91</ele>
        <time>2021-04-16T11:47:17+02:00</time>
      </trkpt>
      <trkpt lat="43.46634" lon="6.7943">
        <ele>95</ele>
        <time>2021-04-16T11:47:22+02:00</time>
      </trkpt>
      <trkpt lat="43.46609" lon="6.79377">
        <ele>90</ele>
        <time>2021-04-16T11:47:27+02:00</time>
      </trkpt>
      <trkpt lat="43.46609" lon="6.79327">
        <ele>90</ele>
        <time>2021-04-16T11:47:32+02:00</time>
      </trkpt>
      <trkpt lat="43.46638" lon="6.79316">
        <ele>93</ele>
        <time>2021-04-16T11:47:37+02:00</time>
      </trkpt>
      <trkpt lat="43.46689" lon="6.79332">
        <ele>97</ele>
        <time>2021-04-16T11:47:42+02:00</time>
      </trkpt>
      <trkpt lat="43.46761" lon="6.79328">
        <ele>99</ele>
        <time>2021-04-16T11:47:47+02:00</time>
      </trkpt>
      <trkpt lat="43.46823" lon="6.79342">
        <ele>102</ele>
        <time>2021-04-16T11:47:52+02:00</time>
      </trkpt>
      <trkpt lat="43.46831" lon="6.79316">
        <ele>103</ele>
        <time>2021-04-16T11:47:57+02:00</time>
      </trkpt>
      <trkpt lat="43.46804" lon="6.79293">
        <ele>103</ele>
        <time>2021-04-16T11:48:02+02:00</time>
      </trkpt>
      <trkpt lat="43.46736" lon="6.79272">
        <ele>100</ele>
        <time>2021-04-16T11:48:07+02:00</time>
      </trkpt>
      <trkpt lat="43.46695" lon="6.79252">
        <ele>96</ele>
        <time>2021-04-16T11:48:12+02:00</time>
      </trkpt>
      <trkpt lat="43.46695" lon="6.79225">
        <ele>98</ele>
        <time>2021-04-16T11:48:17+02:00</time>
      </trkpt>
      <trkpt lat="43.46736" lon="6.79181">
        <ele>103</ele>
        <time>2021-04-16T11:48:22+02:00</time>
      </trkpt>
      <trkpt lat="43.46728" lon="6.79141">
        <ele>104</ele>
        <time>2021-04-16T11:48:27+02:00</time>
      </trkpt>
      <trkpt lat="43.46735" lon="6.7905">
        <ele>105</ele>
        <time>2021-04-16T11:48:32+02:00</time>
      </trkpt>
      <trkpt lat="43.46759" lon="6.78957">
        <ele>108</ele>
        <time>2021-04-16T11:48:37+02:00</time>
      </trkpt>
      <trkpt lat="43.46794" lon="6.78912">
        <ele>103</ele>
        <time>2021-04-16T11:48:42+02:00</time>
      </trkpt>
      <trkpt lat="43.46821" lon="6.78863">
        <ele>96</ele>
        <time>2021-04-16T11:48:47+02:00</time>
      </trkpt>
      <trkpt lat="43.46825" lon="6.7883">
        <ele>93</ele>
        <time>2021-04-16T11:48:52+02:00</time>
      </trkpt>
      <trkpt lat="43.46825" lon="6.78785">
        <ele>92</ele>
        <time>2021-04-16T11:48:57+02:00</time>
      </trkpt>
      <trkpt lat="43.46815" lon="6.78728">
        <ele>91</ele>
        <time>2021-04-16T11:49:02+02:00</time>
      </trkpt>
      <trkpt lat="43.46803" lon="6.78692">
        <ele>90</ele>
        <time>2021-04-16T11:49:07+02:00</time>
      </trkpt>
      <trkpt lat="43.46776" lon="6.78653">
        <ele>89</ele>
        <time>2021-04-16T11:49:12+02:00</time>
      </trkpt>
      <trkpt lat="43.46749" lon="6.78646">
        <ele>90</ele>
        <time>2021-04-16T11:49:17+02:00</time>
      </trkpt>
      <trkpt lat="43.46772" lon="6.78592">
        <ele>89</ele>
        <time>2021-04-16T11:49:22+02:00</time>
      </trkpt>
      <trkpt lat="43.46778" lon="6.78547">
        <ele>88</ele>
        <time>2021-04-16T11:49:27+02:00</time>
      </trkpt>
      <trkpt lat="43.46782" lon="6.78455">
        <ele>84</ele>
        <time>2021-04-16T11:49:32+02:00</time>
      </trkpt>
      <trkpt lat="43.46785" lon="6.78415">
        <ele>82</ele>
        <time>2021-04-16T11:49:37+02:00</time>
      </trkpt>
      <trkpt lat="43.46776" lon="6.78354">
        <ele>80</ele>
        <time>2021-04-16T11:49:42+02:00</time>
      </trkpt>
      <trkpt lat="43.4676" lon="6.78301">
        <ele>78</ele>
        <time>2021-04-16T11:49:47+02:00</time>
      </trkpt>
      <trkpt lat="43.4675" lon="6.78266">
        <ele>76</ele>
        <time>2021-04-16T11:49:52+02:00</time>
      </trkpt>
      <trkpt lat="43.46738" lon="6.78244">
        <ele>77</ele>
        <time>2021-04-16T11:49:57+02:00</time>
      </trkpt>
      <trkpt lat="43.46736" lon="6.78227">
        <ele>77</ele>
        <time>2021-04-16T11:50:02+02:00</time>
      </trkpt>
      <trkpt lat="43.46699" lon="6.78198">
        <ele>77</ele>
        <time>2021-04-16T11:50:07+02:00</time>
      </trkpt>
      <trkpt lat="43.46609" lon="6.78124">
        <ele>77</ele>
        <time>2021-04-16T11:50:12+02:00</time>
      </trkpt>
      <trkpt lat="43.46555" lon="6.78067">
        <ele>73</ele>
        <time>2021-04-16T11:50:17+02:00</time>
      </trkpt>
      <trkpt lat="43.46525" lon="6.78067">
        <ele>70</ele>
        <time>2021-04-16T11:50:22+02:00</time>
      </trkpt>
      <trkpt lat="43.46486" lon="6.78072">
        <ele>67</ele>
        <time>2021-04-16T11:50:27+02:00</time>
      </trkpt>
      <trkpt lat="43.46432" lon="6.7809">
        <ele>65</ele>
        <time>2021-04-16T11:50:32+02:00</time>
      </trkpt>
      <trkpt lat="43.46383" lon="6.78092">
        <ele>64</ele>
        <time>2021-04-16T11:50:37+02:00</time>
      </trkpt>
      <trkpt lat="43.46342" lon="6.78101">
        <ele>63</ele>
        <time>2021-04-16T11:50:42+02:00</time>
      </trkpt>
      <trkpt lat="43.46309" lon="6.78094">
        <ele>61</ele>
        <time>2021-04-16T11:50:47+02:00</time>
      </trkpt>
      <trkpt lat="43.46262" lon="6.78062">
        <ele>60</ele>
        <time>2021-04-16T11:50:52+02:00</time>
      </trkpt>
      <trkpt lat="43.46223" lon="6.78049">
        <ele>59</ele>
        <time>2021-04-16T11:50:57+02:00</time>
      </trkpt>
      <trkpt lat="43.46195" lon="6.78029">
        <ele>57</ele>
        <time>2021-04-16T11:51:02+02:00</time>
      </trkpt>
      <trkpt lat="43.46103" lon="6.77912">
        <ele>53</ele>
        <time>2021-04-16T11:51:07+02:00</time>
      </trkpt>
      <trkpt lat="43.46082" lon="6.77904">
        <ele>51</ele>
        <time>2021-04-16T11:51:12+02:00</time>
      </trkpt>
      <trkpt lat="43.46067" lon="6.77881">
        <ele>51</ele>
        <time>2021-04-16T11:51:17+02:00</time>
      </trkpt>
      <trkpt lat="43.46037" lon="6.77875">
        <ele>51</ele>
        <time>2021-04-16T11:51:22+02:00</time>
      </trkpt>
      <trkpt lat="43.45971" lon="6.77846">
        <ele>48</ele>
        <time>2021-04-16T11:51:27+02:00</time>
      </trkpt>
      <trkpt lat="43.45938" lon="6.77842">
        <ele>47</ele>
        <time>2021-04-16T11:51:32+02:00</time>
      </trkpt>
      <trkpt lat="43.45889" lon="6.77854">
        <ele>48</ele>
        <time>2021-04-16T11:51:37+02:00</time>
      </trkpt>
      <trkpt lat="43.45835" lon="6.77878">
        <ele>50</ele>
        <time>2021-04-16T11:51:42+02:00</time>
      </trkpt>
      <trkpt lat="43.45753" lon="6.77814">
        <ele>52</ele>
        <time>2021-04-16T11:51:47+02:00</time>
      </trkpt>
      <trkpt lat="43.45727" lon="6.77803">
        <ele>54</ele>
        <time>2021-04-16T11:51:52+02:00</time>
      </trkpt>
      <trkpt lat="43.45696" lon="6.77801">
        <ele>57</ele>
        <time>2021-04-16T11:51:57+02:00</time>
      </trkpt>
      <trkpt lat="43.45649" lon="6.77747">
        <ele>63</ele>
        <time>2021-04-16T11:52:02+02:00</time>
      </trkpt>
      <trkpt lat="43.45606" lon="6.77652">
        <ele>68</ele>
        <time>2021-04-16T11:52:07+02:00</time>
      </trkpt>
      <trkpt lat="43.45609" lon="6.77608">
        <ele>67</ele>
        <time>2021-04-16T11:52:12+02:00</time>
      </trkpt>
      <trkpt lat="43.45612" lon="6.77574">
        <ele>66</ele>
        <time>2021-04-16T11:52:17+02:00</time>
      </trkpt>
      <trkpt lat="43.45586" lon="6.77543">
        <ele>66</ele>
        <time>2021-04-16T11:52:22+02:00</time>
      </trkpt>
      <trkpt lat="43.45556" lon="6.77474">
        <ele>64</ele>
        <time>2021-04-16T11:52:27+02:00</time>
      </trkpt>
      <trkpt lat="43.4551" lon="6.7743">
        <ele>65</ele>
        <time>2021-04-16T11:52:32+02:00</time>
      </trkpt>
      <trkpt lat="43.45448" lon="6.77357">
        <ele>63</ele>
        <time>2021-04-16T11:52:37+02:00</time>
      </trkpt>
      <trkpt lat="43.45481" lon="6.77318">
        <ele>64</ele>
        <time>2021-04-16T11:52:42+02:00</time>
      </trkpt>
    </trkseg>
  </trk>
</gpx>